Time;durP1;ratioP1;P1;durP2;ratioP2;P2;SDS_P1;SDS_P2;PMS_P1;PMS_P2;Temp;Humidity;BMP_temperature;BMP_pressure;BME280_temperature;BME280_humidity;BME280_pressure;Samples;Min_cycle;Max_cycle;Signal;HPM_P1;HPM_P2
2021/05/14 00:00:46;;;;;;;14.52;12.55;;;12.10;67.00;;;;;;5098700;28;20093;-79
2021/05/14 00:03:12;;;;;;;12.80;11.43;;;12.10;67.10;;;;;;5082365;28;20044;-78
2021/05/14 00:05:38;;;;;;;13.13;11.80;;;12.00;67.00;;;;;;5116127;28;20047;-81
2021/05/14 00:08:05;;;;;;;13.55;11.85;;;12.00;67.10;;;;;;5109972;28;20465;-78
2021/05/14 00:10:30;;;;;;;13.65;11.38;;;12.00;67.20;;;;;;5098528;28;20058;-78
2021/05/14 00:12:59;;;;;;;13.43;12.00;;;12.00;67.20;;;;;;5099738;28;20040;-79
2021/05/14 00:15:27;;;;;;;11.95;10.68;;;12.00;67.30;;;;;;5087208;28;20079;-78
2021/05/14 00:17:53;;;;;;;11.43;10.20;;;11.90;67.40;;;;;;5094867;28;20118;-79
2021/05/14 00:20:19;;;;;;;14.77;11.05;;;11.90;67.40;;;;;;5079769;28;20040;-79
2021/05/14 00:22:45;;;;;;;12.90;11.45;;;11.90;67.40;;;;;;5078104;28;20067;-82
2021/05/14 00:25:16;;;;;;;12.82;11.45;;;11.90;67.50;;;;;;5098082;28;20373;-78
2021/05/14 00:27:42;;;;;;;12.73;11.43;;;11.90;67.60;;;;;;5082098;28;20059;-78
2021/05/14 00:30:10;;;;;;;12.90;11.32;;;11.90;67.60;;;;;;5114663;28;20044;-77
2021/05/14 00:32:36;;;;;;;13.30;11.88;;;11.90;67.60;;;;;;5097865;28;20070;-79
2021/05/14 00:35:03;;;;;;;12.60;10.93;;;11.80;67.50;;;;;;5097617;28;20527;-77
2021/05/14 00:37:29;;;;;;;12.52;11.32;;;11.80;67.70;;;;;;5081694;28;20499;-78
2021/05/14 00:39:55;;;;;;;12.85;11.52;;;11.80;67.70;;;;;;5097149;28;20036;-76
2021/05/14 00:42:21;;;;;;;14.90;12.55;;;11.80;67.70;;;;;;5081086;28;20051;-78
2021/05/14 00:44:47;;;;;;;13.23;11.93;;;11.80;67.70;;;;;;5081141;28;20438;-82
2021/05/14 00:47:14;;;;;;;13.85;12.07;;;11.80;67.80;;;;;;5097909;28;20047;-78
2021/05/14 00:49:40;;;;;;;13.70;12.30;;;11.80;67.90;;;;;;5080671;28;20048;-77
2021/05/14 00:52:08;;;;;;;14.50;13.10;;;11.70;67.90;;;;;;5097068;28;20119;-78
2021/05/14 00:54:35;;;;;;;16.10;13.30;;;11.70;67.90;;;;;;5078701;28;20134;-78
2021/05/14 00:57:00;;;;;;;13.82;12.40;;;11.80;68.00;;;;;;5094994;28;20064;-78
2021/05/14 00:59:27;;;;;;;14.30;12.80;;;11.70;68.00;;;;;;5097049;28;20056;-78
2021/05/14 01:01:56;;;;;;;14.18;11.77;;;11.70;68.00;;;;;;5080601;28;20040;-78
2021/05/14 01:04:34;;;;;;;14.13;11.52;;;11.70;68.00;;;;;;5098129;28;20396;-79
2021/05/14 01:06:59;;;;;;;12.73;11.43;;;11.70;68.10;;;;;;5076944;28;20040;-78
2021/05/14 01:09:25;;;;;;;15.98;11.43;;;11.60;68.10;;;;;;5071785;28;20125;-78
2021/05/14 01:11:51;;;;;;;12.15;10.93;;;11.60;68.10;;;;;;5079592;28;20051;-82
2021/05/14 01:14:17;;;;;;;11.45;10.30;;;11.60;68.20;;;;;;5080447;28;20047;-78
2021/05/14 01:16:42;;;;;;;12.85;11.38;;;11.60;68.20;;;;;;5097953;28;20036;-78
2021/05/14 01:19:08;;;;;;;11.98;10.75;;;11.60;68.20;;;;;;5096944;28;20052;-79
2021/05/14 01:21:36;;;;;;;13.38;11.98;;;11.60;68.20;;;;;;5098153;28;20093;-78
2021/05/14 01:24:03;;;;;;;14.13;11.57;;;11.50;68.20;;;;;;5096046;28;20388;-80
2021/05/14 01:26:29;;;;;;;14.05;12.05;;;11.50;68.20;;;;;;5080300;28;20054;-78
2021/05/14 01:28:57;;;;;;;13.55;11.18;;;11.60;68.30;;;;;;5096435;28;20135;-82
2021/05/14 01:31:23;;;;;;;10.98;9.88;;;11.60;68.30;;;;;;5096738;28;20036;-79
2021/05/14 01:33:49;;;;;;;12.65;11.35;;;11.50;68.30;;;;;;5113492;28;20492;-78
2021/05/14 01:36:14;;;;;;;12.40;11.15;;;11.50;68.40;;;;;;5079088;28;20044;-78
2021/05/14 01:38:40;;;;;;;12.30;11.00;;;11.50;68.40;;;;;;5113540;28;20413;-79
2021/05/14 01:41:06;;;;;;;13.20;11.70;;;11.50;68.40;;;;;;5095590;28;20149;-79
2021/05/14 01:43:32;;;;;;;12.52;11.00;;;11.50;68.40;;;;;;5080329;28;20490;-78
2021/05/14 01:46:03;;;;;;;11.98;10.70;;;11.50;68.50;;;;;;5097001;28;20055;-78
2021/05/14 01:48:30;;;;;;;11.30;10.10;;;11.50;68.50;;;;;;5096613;28;20071;-77
2021/05/14 01:51:04;;;;;;;12.73;9.85;;;11.50;68.60;;;;;;5062820;28;20121;-83
2021/05/14 01:53:29;;;;;;;11.90;10.60;;;11.40;68.60;;;;;;5097122;28;20148;-78
2021/05/14 01:55:56;;;;;;;12.48;11.18;;;11.40;68.60;;;;;;5079468;28;20056;-83
2021/05/14 01:58:24;;;;;;;11.48;10.27;;;11.40;68.70;;;;;;5095869;28;20046;-79
2021/05/14 02:00:50;;;;;;;11.40;10.05;;;11.40;68.70;;;;;;5095860;28;20537;-78
2021/05/14 02:03:16;;;;;;;14.82;11.43;;;11.40;68.80;;;;;;5095443;28;20044;-77
2021/05/14 02:05:42;;;;;;;12.30;10.93;;;11.40;68.80;;;;;;5112609;28;20075;-78
2021/05/14 02:08:07;;;;;;;12.40;10.52;;;11.40;68.80;;;;;;5078966;28;20051;-78
2021/05/14 02:10:33;;;;;;;13.18;11.77;;;11.40;68.90;;;;;;5096117;28;20071;-78
2021/05/14 02:12:59;;;;;;;13.10;11.50;;;11.30;69.00;;;;;;5113004;28;20492;-84
2021/05/14 02:15:25;;;;;;;12.60;11.18;;;11.30;69.70;;;;;;5096081;28;20369;-80
2021/05/14 02:17:50;;;;;;;13.63;11.88;;;11.40;69.00;;;;;;5095873;28;20385;-78
2021/05/14 02:20:16;;;;;;;13.80;11.57;;;11.30;68.80;;;;;;5095799;28;20493;-78
2021/05/14 02:22:42;;;;;;;12.30;10.88;;;11.30;68.90;;;;;;5079512;28;20044;-78
2021/05/14 02:25:08;;;;;;;12.85;11.50;;;11.30;68.80;;;;;;5095596;28;20136;-79
2021/05/14 02:27:34;;;;;;;12.48;11.20;;;11.30;68.90;;;;;;5096472;28;20052;-79
2021/05/14 02:30:04;;;;;;;12.75;11.43;;;11.30;69.00;;;;;;5097669;28;20480;-81
2021/05/14 02:32:30;;;;;;;12.50;11.20;;;11.30;69.00;;;;;;5097363;28;20039;-78
2021/05/14 02:34:56;;;;;;;12.23;10.82;;;11.30;69.00;;;;;;5096539;28;20066;-78
2021/05/14 02:37:21;;;;;;;12.18;10.50;;;11.20;69.10;;;;;;5095431;28;20043;-79
2021/05/14 02:39:47;;;;;;;12.23;10.57;;;11.20;69.10;;;;;;5077656;28;20073;-77
2021/05/14 02:42:13;;;;;;;12.38;11.05;;;11.30;69.20;;;;;;5095546;28;20044;-80
2021/05/14 02:44:39;;;;;;;12.50;10.20;;;11.30;69.30;;;;;;5097044;28;20036;-79
2021/05/14 02:47:05;;;;;;;12.55;11.25;;;11.20;69.30;;;;;;5081282;28;20058;-82
2021/05/14 02:49:31;;;;;;;12.38;11.07;;;11.20;69.30;;;;;;5100288;28;20055;-79
2021/05/14 02:51:56;;;;;;;11.85;10.52;;;11.20;69.40;;;;;;5083214;28;20429;-78
2021/05/14 02:54:22;;;;;;;11.10;9.98;;;11.20;69.40;;;;;;5099865;28;20040;-79
2021/05/14 02:56:48;;;;;;;12.73;10.93;;;11.20;69.40;;;;;;5099962;28;20454;-77
2021/05/14 02:59:17;;;;;;;10.60;9.50;;;11.20;69.50;;;;;;5099993;28;20047;-78
2021/05/14 03:01:43;;;;;;;14.98;10.57;;;11.20;69.50;;;;;;5092667;28;20106;-77
2021/05/14 03:04:08;;;;;;;12.23;10.77;;;11.20;69.40;;;;;;5063818;28;20086;-82
2021/05/14 03:06:35;;;;;;;11.57;10.27;;;11.20;69.50;;;;;;5080439;28;20045;-76
2021/05/14 03:09:01;;;;;;;12.60;11.15;;;11.20;69.60;;;;;;5097669;28;20047;-76
2021/05/14 03:11:27;;;;;;;12.85;11.55;;;11.20;69.60;;;;;;5080207;28;20048;-79
2021/05/14 03:13:52;;;;;;;13.13;11.68;;;11.10;69.70;;;;;;5081212;28;20511;-79
2021/05/14 03:16:18;;;;;;;15.13;11.85;;;11.10;69.70;;;;;;5098008;28;20547;-79
2021/05/14 03:18:49;;;;;;;14.45;12.68;;;11.10;70.50;;;;;;5064161;28;20549;-79
2021/05/14 03:21:15;;;;;;;12.93;11.63;;;11.10;69.70;;;;;;5063288;28;20056;-79
2021/05/14 03:23:41;;;;;;;14.57;11.93;;;11.10;69.70;;;;;;5080517;28;20044;-79
2021/05/14 03:26:07;;;;;;;15.25;11.55;;;11.10;69.80;;;;;;5063434;28;20102;-79
2021/05/14 03:28:33;;;;;;;13.88;11.85;;;11.10;69.90;;;;;;5063255;28;20048;-78
2021/05/14 03:30:58;;;;;;;13.43;12.02;;;11.10;69.90;;;;;;5080611;28;20127;-80
2021/05/14 03:33:27;;;;;;;16.48;12.95;;;11.10;69.80;;;;;;5079300;28;20056;-78
2021/05/14 03:35:53;;;;;;;13.90;11.82;;;11.20;70.00;;;;;;5080846;28;20040;-77
2021/05/14 03:38:22;;;;;;;13.32;11.93;;;11.10;69.90;;;;;;5079980;28;20040;-79
2021/05/14 03:40:48;;;;;;;13.50;11.55;;;11.10;69.90;;;;;;5063630;28;20045;-77
2021/05/14 03:43:15;;;;;;;15.52;12.10;;;11.10;69.90;;;;;;5062604;28;20102;-84
2021/05/14 03:45:40;;;;;;;13.68;11.93;;;11.10;70.00;;;;;;5080224;28;20036;-78
2021/05/14 03:48:27;;;;;;;13.98;11.80;;;11.10;70.00;;;;;;5079261;28;20044;-81
2021/05/14 03:50:53;;;;;;;13.70;12.18;;;11.10;70.00;;;;;;5078431;28;20057;-78
2021/05/14 03:53:22;;;;;;;16.60;12.98;;;11.10;69.90;;;;;;5061745;28;20052;-80
2021/05/14 03:55:48;;;;;;;14.40;12.73;;;11.10;69.70;;;;;;5080151;28;20098;-78
2021/05/14 03:58:14;;;;;;;16.15;13.10;;;11.10;69.80;;;;;;5079178;28;20055;-84
2021/05/14 04:00:40;;;;;;;14.38;12.80;;;11.10;69.70;;;;;;5080259;28;20033;-77
2021/05/14 04:03:06;;;;;;;15.55;12.80;;;11.10;69.80;;;;;;5081531;28;20048;-79
2021/05/14 04:05:34;;;;;;;16.13;13.85;;;11.10;69.80;;;;;;5062211;28;20049;-80
2021/05/14 04:08:00;;;;;;;16.58;14.25;;;11.10;69.90;;;;;;5079937;28;20048;-79
2021/05/14 04:16:07;;;;;;;15.13;13.15;;;11.10;69.80;;;;;;5071088;28;20131;-78
2021/05/14 04:18:36;;;;;;;15.00;13.40;;;11.10;69.70;;;;;;5061181;28;20137;-79
2021/05/14 04:21:03;;;;;;;17.30;13.15;;;11.10;69.70;;;;;;5078585;28;20040;-79
2021/05/14 04:23:29;;;;;;;15.20;13.55;;;11.10;69.60;;;;;;5077689;28;20106;-79
2021/05/14 04:25:55;;;;;;;16.55;12.90;;;11.10;69.70;;;;;;5078329;28;20451;-78
2021/05/14 04:28:21;;;;;;;15.77;13.57;;;11.10;69.70;;;;;;5044872;28;20068;-86
2021/05/14 04:30:46;;;;;;;17.02;14.02;;;11.10;69.60;;;;;;5061876;28;20135;-78
2021/05/14 04:33:12;;;;;;;20.02;14.00;;;11.10;69.50;;;;;;5078614;28;20076;-79
2021/05/14 04:35:38;;;;;;;16.13;13.23;;;11.10;69.60;;;;;;5078170;28;20048;-78
2021/05/14 04:38:04;;;;;;;16.05;13.30;;;11.10;69.50;;;;;;5078516;28;20036;-79
2021/05/14 04:40:29;;;;;;;15.95;13.65;;;11.10;70.30;;;;;;5078245;28;20045;-79
2021/05/14 04:43:02;;;;;;;17.20;13.60;;;11.10;69.60;;;;;;5062037;28;20169;-78
2021/05/14 04:45:28;;;;;;;;;;;11.10;69.60;;;;;;5078439;28;20048;-79
2021/05/14 04:47:53;;;;;;;15.13;11.98;;;11.10;69.90;;;;;;5080178;28;20050;-79
2021/05/14 04:50:19;;;;;;;18.15;15.18;;;11.10;69.50;;;;;;5078274;28;20044;-79
2021/05/14 04:52:46;;;;;;;18.15;13.98;;;11.10;69.30;;;;;;5044623;28;20165;-79
2021/05/14 04:55:12;;;;;;;15.93;13.30;;;11.10;69.40;;;;;;5060875;28;20045;-78
2021/05/14 04:57:38;;;;;;;15.98;13.57;;;11.10;69.50;;;;;;5060132;28;20074;-78
2021/05/14 05:00:05;;;;;;;15.77;13.40;;;11.10;69.50;;;;;;5078006;28;20102;-79
2021/05/14 05:02:32;;;;;;;16.75;13.65;;;11.10;69.60;;;;;;5061619;28;20040;-79
2021/05/14 05:04:58;;;;;;;15.13;13.02;;;11.10;69.50;;;;;;5077669;28;20094;-80
2021/05/14 05:07:26;;;;;;;15.98;13.50;;;11.20;69.60;;;;;;5060679;28;20091;-80
2021/05/14 05:09:52;;;;;;;15.38;12.85;;;11.20;69.70;;;;;;5079191;28;20476;-80
2021/05/14 05:12:18;;;;;;;16.35;12.00;;;11.20;69.60;;;;;;5090074;28;20036;-80
2021/05/14 05:14:45;;;;;;;16.80;12.85;;;11.20;69.30;;;;;;5075305;28;20039;-79
2021/05/14 05:17:22;;;;;;;15.38;12.18;;;11.20;69.40;;;;;;5085441;28;20055;-79
2021/05/14 05:19:51;;;;;;;16.85;13.52;;;11.20;69.00;;;;;;5091723;28;20150;-80
2021/05/14 05:22:18;;;;;;;16.08;11.88;;;11.30;69.00;;;;;;5090608;28;20127;-81
2021/05/14 05:24:44;;;;;;;14.77;11.90;;;11.30;69.00;;;;;;5078233;28;20364;-79
2021/05/14 05:27:10;;;;;;;14.30;10.88;;;11.30;69.10;;;;;;5107503;28;20542;-78
2021/05/14 05:29:36;;;;;;;15.27;11.40;;;11.30;69.20;;;;;;5098300;28;20127;-79
2021/05/14 05:32:02;;;;;;;15.43;11.88;;;11.30;68.90;;;;;;5080028;28;20063;-79
2021/05/14 05:34:28;;;;;;;15.05;11.43;;;11.40;68.80;;;;;;5080866;28;20044;-84
2021/05/14 05:36:55;;;;;;;13.70;10.90;;;11.40;68.50;;;;;;5097624;28;20048;-79
2021/05/14 05:39:21;;;;;;;13.73;10.32;;;11.40;68.70;;;;;;5098463;28;20449;-79
2021/05/14 05:41:46;;;;;;;13.38;10.75;;;11.40;68.80;;;;;;5081654;28;20445;-78
2021/05/14 05:44:12;;;;;;;12.27;9.63;;;11.40;68.80;;;;;;5082026;28;20054;-78
2021/05/14 05:46:38;;;;;;;13.93;10.35;;;11.50;68.50;;;;;;5098363;28;20048;-79
2021/05/14 05:49:04;;;;;;;13.02;9.80;;;11.50;68.60;;;;;;5097471;28;20505;-78
2021/05/14 05:51:31;;;;;;;11.50;8.77;;;11.50;68.50;;;;;;5080740;28;20096;-84
2021/05/14 05:53:57;;;;;;;11.60;9.02;;;11.60;68.00;;;;;;5097750;28;20040;-78
2021/05/14 05:56:24;;;;;;;9.75;7.63;;;11.70;68.00;;;;;;5097499;28;20458;-78
2021/05/14 05:58:49;;;;;;;9.85;7.45;;;11.70;68.20;;;;;;5096221;28;20064;-78
2021/05/14 06:01:16;;;;;;;11.23;8.20;;;11.70;68.20;;;;;;5097780;28;20473;-78
2021/05/14 06:03:42;;;;;;;10.02;8.77;;;11.80;68.20;;;;;;5079831;28;20059;-78
2021/05/14 06:06:11;;;;;;;10.40;8.32;;;11.80;67.90;;;;;;5064123;28;20465;-79
2021/05/14 06:08:37;;;;;;;10.70;8.25;;;11.90;67.80;;;;;;5097117;28;20048;-78
2021/05/14 06:11:03;;;;;;;9.63;7.35;;;11.90;67.80;;;;;;5097185;28;20036;-77
2021/05/14 06:13:30;;;;;;;9.30;8.07;;;12.00;67.60;;;;;;5098420;28;20093;-77
2021/05/14 06:16:01;;;;;;;10.95;7.93;;;12.00;67.30;;;;;;5096717;28;20123;-77
2021/05/14 06:18:30;;;;;;;9.15;7.50;;;12.00;67.40;;;;;;5098895;28;20047;-78
2021/05/14 06:20:58;;;;;;;10.32;8.30;;;12.00;67.00;;;;;;5080633;28;20135;-78
2021/05/14 06:23:24;;;;;;;11.00;7.65;;;12.10;67.00;;;;;;5097468;28;20416;-78
2021/05/14 06:25:50;;;;;;;9.30;7.70;;;12.10;67.20;;;;;;5080661;28;20083;-79
2021/05/14 06:28:17;;;;;;;10.30;7.63;;;12.10;67.20;;;;;;5097442;28;20476;-78
2021/05/14 06:30:43;;;;;;;10.63;7.63;;;12.10;67.10;;;;;;5097649;28;20096;-80
2021/05/14 06:33:09;;;;;;;9.13;7.18;;;12.10;67.20;;;;;;5097899;28;20056;-79
2021/05/14 06:35:35;;;;;;;7.80;5.85;;;12.10;67.30;;;;;;5098816;28;20040;-84
2021/05/14 06:38:01;;;;;;;9.35;7.00;;;12.10;67.30;;;;;;5096791;28;20067;-78
2021/05/14 06:40:28;;;;;;;10.20;7.05;;;12.20;67.10;;;;;;5097711;28;20123;-78
2021/05/14 06:42:54;;;;;;;8.45;6.82;;;12.20;66.80;;;;;;5097341;28;20072;-79
2021/05/14 06:45:19;;;;;;;8.77;7.32;;;12.30;66.90;;;;;;5080847;28;20044;-79
2021/05/14 06:47:46;;;;;;;9.13;7.32;;;12.30;66.90;;;;;;5096742;28;20148;-78
2021/05/14 06:50:12;;;;;;;8.48;6.63;;;12.30;66.80;;;;;;5081019;28;20079;-78
2021/05/14 06:52:38;;;;;;;9.45;6.97;;;12.30;66.70;;;;;;5063696;28;20052;-82
2021/05/14 06:55:04;;;;;;;9.52;7.05;;;12.40;66.60;;;;;;5097544;28;20048;-77
2021/05/14 06:57:33;;;;;;;9.90;7.22;;;12.40;66.30;;;;;;5081457;28;20040;-78
2021/05/14 06:59:59;;;;;;;11.00;6.70;;;12.50;66.00;;;;;;5076728;28;20473;-78
2021/05/14 07:02:25;;;;;;;9.18;6.57;;;12.50;66.10;;;;;;5098642;28;20108;-78
2021/05/14 07:04:51;;;;;;;10.35;6.68;;;12.50;66.10;;;;;;5090861;28;20076;-78
2021/05/14 07:07:20;;;;;;;9.75;6.97;;;12.60;66.10;;;;;;5087591;28;20110;-78
2021/05/14 07:09:46;;;;;;;8.13;6.28;;;12.60;66.20;;;;;;5089098;28;20438;-79
2021/05/14 07:12:12;;;;;;;8.50;6.50;;;12.60;66.20;;;;;;5104850;28;20074;-78
2021/05/14 07:14:38;;;;;;;8.77;6.82;;;12.70;66.20;;;;;;5114131;28;20069;-76
2021/05/14 07:17:04;;;;;;;8.98;6.60;;;12.70;66.00;;;;;;5091466;28;20064;-77
2021/05/14 07:19:39;;;;;;;8.10;6.25;;;12.80;65.90;;;;;;5100104;28;20035;-77
2021/05/14 07:22:06;;;;;;;8.55;6.20;;;12.80;65.90;;;;;;5082656;28;20044;-79
2021/05/14 07:24:32;;;;;;;10.10;6.82;;;12.90;65.60;;;;;;5089476;28;20044;-80
2021/05/14 07:26:59;;;;;;;7.82;6.10;;;12.90;65.50;;;;;;5106161;28;20118;-77
2021/05/14 07:29:25;;;;;;;10.25;6.47;;;13.00;65.40;;;;;;5079086;28;20453;-73
2021/05/14 07:31:50;;;;;;;9.15;7.95;;;13.00;65.20;;;;;;5084773;28;20139;-75
2021/05/14 07:34:16;;;;;;;8.85;5.97;;;13.10;65.00;;;;;;5098389;28;20108;-76
2021/05/14 07:36:42;;;;;;;10.52;6.80;;;13.10;65.00;;;;;;5100567;28;20387;-77
2021/05/14 07:39:08;;;;;;;8.88;7.50;;;13.10;65.00;;;;;;5069635;28;20063;-78
2021/05/14 07:41:42;;;;;;;9.07;6.60;;;13.10;65.00;;;;;;5083991;28;20047;-77
2021/05/14 07:44:07;;;;;;;9.88;7.65;;;13.20;65.10;;;;;;5098306;28;20031;-76
2021/05/14 07:46:36;;;;;;;11.23;6.85;;;13.10;65.00;;;;;;5086794;28;20062;-78
2021/05/14 07:49:02;;;;;;;8.00;6.45;;;13.20;64.80;;;;;;5072237;28;20044;-76
2021/05/14 07:51:28;;;;;;;8.40;6.57;;;13.30;64.80;;;;;;5098931;28;20138;-79
2021/05/14 07:53:57;;;;;;;9.48;7.03;;;13.30;64.70;;;;;;5055396;28;20047;-78
2021/05/14 07:56:23;;;;;;;10.65;6.63;;;13.30;64.70;;;;;;5078867;28;20071;-77
2021/05/14 07:58:52;;;;;;;11.13;7.70;;;13.40;64.60;;;;;;5087212;28;20036;-82
2021/05/14 08:01:18;;;;;;;7.97;6.53;;;13.40;64.30;;;;;;5085877;28;20039;-77
2021/05/14 08:03:44;;;;;;;11.20;7.47;;;13.40;64.30;;;;;;5107394;28;20047;-76
2021/05/14 08:06:10;;;;;;;9.40;7.50;;;13.50;64.20;;;;;;5066475;28;20052;-77
2021/05/14 08:08:39;;;;;;;10.32;8.05;;;13.50;64.00;;;;;;5089592;28;20122;-76
2021/05/14 08:11:07;;;;;;;11.30;7.65;;;13.50;64.00;;;;;;5089034;28;20059;-77
2021/05/14 08:13:38;;;;;;;8.13;5.70;;;13.60;64.00;;;;;;5091896;28;20103;-78
2021/05/14 08:16:06;;;;;;;15.88;9.82;;;13.90;65.00;;;;;;5093371;28;20040;-80
2021/05/14 08:18:39;;;;;;;8.55;4.63;;;13.90;64.10;;;;;;5061212;28;20059;-79
2021/05/14 08:21:05;;;;;;;6.07;4.00;;;14.10;65.50;;;;;;5086534;28;20037;-77
2021/05/14 08:23:36;;;;;;;10.53;4.57;;;14.60;66.00;;;;;;5095121;28;20128;-75
2021/05/14 08:26:06;;;;;;;6.72;4.50;;;15.00;65.50;;;;;;5061340;28;20456;-80
2021/05/14 08:28:32;;;;;;;6.57;4.70;;;15.20;64.90;;;;;;5086398;28;20546;-83
2021/05/14 08:31:02;;;;;;;12.02;7.93;;;15.40;64.20;;;;;;5079486;28;20039;-81
2021/05/14 08:33:30;;;;;;;8.85;5.00;;;15.50;62.60;;;;;;5076631;28;20045;-79
2021/05/14 08:35:56;;;;;;;13.88;7.43;;;15.50;63.30;;;;;;5072022;28;20047;-80
2021/05/14 08:38:23;;;;;;;13.40;9.32;;;15.60;63.40;;;;;;5073329;28;20041;-80
2021/05/14 08:40:49;;;;;;;12.73;9.73;;;15.50;61.50;;;;;;5088962;28;20047;-79
2021/05/14 08:43:16;;;;;;;13.50;9.05;;;15.30;61.00;;;;;;5089689;28;20068;-89
2021/05/14 08:45:42;;;;;;;12.45;8.90;;;15.10;60.70;;;;;;5089677;28;20100;-81
2021/05/14 08:48:30;;;;;;;12.60;9.93;;;15.00;61.00;;;;;;5090357;28;20103;-84
2021/05/14 08:50:56;;;;;;;10.13;8.85;;;14.80;60.60;;;;;;5068908;28;20066;-83
2021/05/14 08:53:44;;;;;;;11.95;7.57;;;14.70;60.80;;;;;;5074944;28;20040;-83
2021/05/14 08:56:10;;;;;;;10.32;7.75;;;14.90;61.60;;;;;;5071464;28;20048;-82
2021/05/14 08:58:38;;;;;;;11.57;9.07;;;14.90;60.90;;;;;;5078295;28;20097;-82
2021/05/14 09:01:04;;;;;;;10.55;7.90;;;14.90;60.70;;;;;;5074044;28;20482;-83
2021/05/14 09:03:57;;;;;;;10.02;8.48;;;14.90;60.50;;;;;;5065558;28;20043;-85
2021/05/14 09:06:33;;;;;;;9.68;7.88;;;14.90;60.00;;;;;;5099059;27;20040;-84
2021/05/14 09:09:04;;;;;;;10.90;7.93;;;14.90;60.40;;;;;;5080116;28;20116;-80
2021/05/14 09:11:41;;;;;;;11.80;8.05;;;15.00;60.50;;;;;;5064801;28;20037;-80
2021/05/14 09:14:44;;;;;;;12.48;7.65;;;15.00;60.00;;;;;;5088235;28;20055;-76
2021/05/14 09:17:18;;;;;;;9.77;7.50;;;15.00;60.00;;;;;;5084450;28;20085;-77
2021/05/14 09:19:56;;;;;;;11.60;7.53;;;15.00;60.00;;;;;;5080705;28;20044;-77
2021/05/14 09:22:23;;;;;;;14.05;8.27;;;15.10;60.00;;;;;;5061035;28;20036;-80
2021/05/14 09:24:57;;;;;;;13.05;8.45;;;15.20;60.00;;;;;;5095968;28;20067;-78
2021/05/14 09:27:33;;;;;;;10.15;7.50;;;15.20;59.80;;;;;;5095582;28;20492;-77
2021/05/14 09:30:02;;;;;;;8.68;6.45;;;15.30;59.50;;;;;;5095482;28;20064;-86
2021/05/14 09:32:33;;;;;;;9.18;7.00;;;15.30;59.50;;;;;;5094685;28;20103;-77
2021/05/14 09:35:01;;;;;;;12.50;8.27;;;15.40;59.30;;;;;;5107786;28;20063;-77
2021/05/14 09:37:29;;;;;;;10.88;7.00;;;15.40;59.30;;;;;;5099228;28;20052;-76
2021/05/14 09:40:17;;;;;;;9.23;7.38;;;15.50;59.10;;;;;;5081455;28;20121;-77
2021/05/14 09:42:45;;;;;;;9.63;7.85;;;15.50;58.50;;;;;;5098505;28;20040;-76
2021/05/14 09:45:16;;;;;;;11.05;7.47;;;15.50;58.80;;;;;;5098705;28;20048;-83
2021/05/14 09:47:43;;;;;;;9.38;7.00;;;15.60;58.80;;;;;;5098893;28;20040;-76
2021/05/14 09:50:29;;;;;;;11.57;8.70;;;15.70;58.70;;;;;;5099769;28;20051;-77
2021/05/14 09:53:22;;;;;;;10.77;8.30;;;15.70;58.20;;;;;;5098749;28;20051;-77
2021/05/14 09:55:53;;;;;;;;;;;15.80;58.00;;;;;;5063543;28;20059;-77
2021/05/14 09:58:25;;;;;;;10.75;6.97;;;15.80;58.00;;;;;;5098529;28;20356;-75
2021/05/14 10:00:51;;;;;;;9.10;7.43;;;15.90;58.40;;;;;;5098561;28;20070;-77
2021/05/14 10:03:17;;;;;;;8.80;7.38;;;15.90;58.20;;;;;;5098230;28;20400;-77
2021/05/14 10:05:46;;;;;;;10.18;7.53;;;15.90;58.00;;;;;;5098466;28;20043;-77
2021/05/14 10:08:23;;;;;;;10.18;6.93;;;16.00;57.80;;;;;;5082718;28;20520;-76
2021/05/14 10:11:06;;;;;;;11.73;7.50;;;16.10;57.90;;;;;;5083993;28;20107;-77
2021/05/14 10:13:32;;;;;;;9.73;7.65;;;16.10;57.70;;;;;;5098442;28;20071;-77
2021/05/14 10:16:03;;;;;;;11.70;7.47;;;16.10;57.40;;;;;;5098721;28;20047;-77
2021/05/14 10:18:29;;;;;;;12.38;7.20;;;16.10;57.30;;;;;;5098965;28;20118;-77
2021/05/14 10:20:55;;;;;;;9.75;7.03;;;16.10;57.20;;;;;;5098382;28;20099;-78
2021/05/14 10:23:31;;;;;;;9.07;7.10;;;16.10;57.10;;;;;;5097464;28;20203;-77
2021/05/14 10:26:08;;;;;;;10.50;8.30;;;16.20;57.20;;;;;;5095923;28;20040;-76
2021/05/14 10:28:42;;;;;;;11.52;8.25;;;16.20;56.90;;;;;;5096646;28;20056;-77
2021/05/14 10:31:09;;;;;;;10.48;7.45;;;16.20;56.90;;;;;;5096894;28;20040;-78
2021/05/14 10:33:44;;;;;;;11.82;8.27;;;16.20;57.00;;;;;;5097346;28;20051;-76
2021/05/14 10:36:22;;;;;;;9.23;7.43;;;16.20;56.70;;;;;;5099019;28;20040;-77
2021/05/14 10:39:11;;;;;;;10.18;7.50;;;16.30;56.60;;;;;;5099319;28;20126;-77
2021/05/14 10:41:57;;;;;;;10.20;7.55;;;16.20;56.60;;;;;;5097787;28;20040;-76
2021/05/14 10:44:42;;;;;;;9.70;7.07;;;16.30;57.00;;;;;;5081352;28;20052;-77
2021/05/14 10:47:24;;;;;;;12.10;8.05;;;16.30;56.70;;;;;;5097307;28;20451;-77
2021/05/14 10:49:52;;;;;;;10.80;7.90;;;16.30;56.70;;;;;;5099481;28;20040;-77
2021/05/14 10:52:19;;;;;;;10.40;7.85;;;16.30;56.80;;;;;;5081207;28;20068;-76
2021/05/14 10:54:45;;;;;;;12.32;8.52;;;16.30;56.60;;;;;;5097790;28;20040;-76
2021/05/14 10:57:14;;;;;;;10.35;7.38;;;16.40;56.50;;;;;;5097914;28;20044;-84
2021/05/14 10:59:41;;;;;;;8.77;7.55;;;16.30;56.20;;;;;;5098566;28;20044;-76
2021/05/14 11:02:29;;;;;;;11.93;8.15;;;16.30;56.10;;;;;;5095089;28;20047;-78
2021/05/14 11:04:55;;;;;;;14.18;8.00;;;16.30;55.80;;;;;;5078577;28;20135;-76
2021/05/14 11:07:37;;;;;;;10.90;6.85;;;16.30;56.10;;;;;;5094647;28;20047;-77
2021/05/14 11:10:14;;;;;;;9.68;7.50;;;16.30;55.70;;;;;;5097816;28;20109;-77
2021/05/14 11:12:40;;;;;;;10.18;6.72;;;16.20;55.90;;;;;;5098311;28;20481;-76
2021/05/14 11:15:21;;;;;;;10.02;6.85;;;16.20;56.00;;;;;;5097709;28;20052;-77
2021/05/14 11:18:15;;;;;;;12.68;7.97;;;16.20;55.80;;;;;;5099367;28;20048;-77
2021/05/14 11:20:47;;;;;;;11.75;7.53;;;16.20;55.70;;;;;;5097947;28;20090;-76
2021/05/14 11:23:34;;;;;;;10.52;6.45;;;16.20;56.10;;;;;;5080924;28;20047;-76
2021/05/14 11:26:01;;;;;;;9.15;7.43;;;16.10;55.80;;;;;;5097512;28;20105;-76
2021/05/14 11:28:39;;;;;;;10.52;7.43;;;16.10;56.20;;;;;;5096795;28;20048;-77
2021/05/14 11:31:05;;;;;;;9.35;6.45;;;16.10;56.20;;;;;;5080445;28;20524;-76
2021/05/14 11:33:31;;;;;;;11.60;7.18;;;16.10;56.40;;;;;;5096421;28;20078;-77
2021/05/14 11:35:57;;;;;;;10.55;6.65;;;16.10;56.40;;;;;;5097428;28;20089;-76
2021/05/14 11:38:23;;;;;;;10.35;6.78;;;16.10;56.40;;;;;;5097098;28;20039;-77
2021/05/14 11:40:50;;;;;;;8.93;7.50;;;16.10;56.40;;;;;;5097045;28;20139;-77
2021/05/14 11:43:16;;;;;;;12.88;7.05;;;16.10;56.60;;;;;;5096520;28;20048;-76
2021/05/14 11:46:01;;;;;;;10.63;6.70;;;16.20;56.60;;;;;;5082907;28;20464;-76
2021/05/14 11:48:47;;;;;;;10.75;6.63;;;16.20;56.50;;;;;;5068745;28;20051;-77
2021/05/14 11:51:14;;;;;;;9.82;6.63;;;16.20;56.60;;;;;;5094448;28;20076;-76
2021/05/14 11:53:40;;;;;;;9.68;7.50;;;16.20;56.50;;;;;;5075933;28;20048;-77
2021/05/14 11:56:06;;;;;;;11.73;7.28;;;16.20;56.70;;;;;;5093239;28;20138;-76
2021/05/14 11:58:31;;;;;;;14.70;8.30;;;16.20;56.80;;;;;;5092988;28;20052;-74
2021/05/14 12:00:57;;;;;;;12.52;7.05;;;16.20;57.10;;;;;;5093109;28;20502;-75
2021/05/14 12:03:24;;;;;;;13.27;7.85;;;16.30;57.30;;;;;;5092797;28;20048;-76
2021/05/14 12:05:50;;;;;;;11.55;6.78;;;16.30;57.60;;;;;;5093246;28;20051;-76
2021/05/14 12:08:17;;;;;;;12.98;7.47;;;16.20;57.70;;;;;;5075953;28;20127;-76
2021/05/14 12:10:56;;;;;;;13.30;8.65;;;16.30;58.10;;;;;;5075735;28;20046;-76
2021/05/14 12:13:23;;;;;;;13.18;9.65;;;16.30;58.20;;;;;;5098069;28;20429;-86
2021/05/14 12:16:03;;;;;;;11.70;8.52;;;16.30;58.30;;;;;;5082847;28;20044;-77
2021/05/14 12:18:32;;;;;;;13.82;8.63;;;16.20;58.30;;;;;;5098937;28;20040;-77
2021/05/14 12:21:00;;;;;;;13.75;8.90;;;16.20;58.40;;;;;;5098839;28;20063;-76
2021/05/14 12:23:28;;;;;;;12.85;9.65;;;16.20;58.40;;;;;;5081842;28;20070;-76
2021/05/14 12:26:00;;;;;;;12.88;8.65;;;16.30;58.60;;;;;;5100103;28;20489;-77
2021/05/14 12:28:41;;;;;;;11.07;8.15;;;16.30;58.50;;;;;;5099503;28;20054;-78
2021/05/14 12:31:10;;;;;;;14.18;8.98;;;16.30;58.70;;;;;;5099065;28;20177;-76
2021/05/14 12:33:52;;;;;;;13.93;8.77;;;16.30;58.90;;;;;;5097596;28;20060;-76
2021/05/14 12:36:25;;;;;;;11.32;8.95;;;16.30;59.10;;;;;;5100611;28;20040;-77
2021/05/14 12:38:51;;;;;;;15.30;9.52;;;16.40;59.20;;;;;;5115962;28;20416;-76
2021/05/14 12:41:50;;;;;;;15.38;9.10;;;16.50;59.20;;;;;;5098199;28;20108;-77
2021/05/14 12:44:25;;;;;;;15.63;10.18;;;16.60;59.80;;;;;;5075196;28;20443;-76
2021/05/14 12:47:05;;;;;;;15.55;9.90;;;16.60;59.40;;;;;;5097305;28;20040;-76
2021/05/14 12:49:40;;;;;;;14.35;9.98;;;16.70;59.40;;;;;;5098967;28;20051;-76